sensor_id;sensor_type;location;lat;lon;timestamp;temperature;humidity
68215;DHT22;55036;52.138;5.236;2023-04-06T00:00:49;4.90;64.70
68215;DHT22;55036;52.138;5.236;2023-04-06T00:03:16;4.90;64.80
68215;DHT22;55036;52.138;5.236;2023-04-06T00:05:42;4.90;64.90
68215;DHT22;55036;52.138;5.236;2023-04-06T00:08:09;4.90;65.00
68215;DHT22;55036;52.138;5.236;2023-04-06T00:10:36;4.90;64.80
68215;DHT22;55036;52.138;5.236;2023-04-06T00:13:03;4.80;64.90
68215;DHT22;55036;52.138;5.236;2023-04-06T00:15:29;4.80;65.10
68215;DHT22;55036;52.138;5.236;2023-04-06T00:17:56;4.80;65.30
68215;DHT22;55036;52.138;5.236;2023-04-06T00:20:23;4.80;65.30
68215;DHT22;55036;52.138;5.236;2023-04-06T00:22:51;4.80;65.40
68215;DHT22;55036;52.138;5.236;2023-04-06T00:25:18;4.80;65.50
68215;DHT22;55036;52.138;5.236;2023-04-06T00:27:44;4.80;65.50
68215;DHT22;55036;52.138;5.236;2023-04-06T00:30:11;4.80;65.70
68215;DHT22;55036;52.138;5.236;2023-04-06T00:32:38;4.80;65.70
68215;DHT22;55036;52.138;5.236;2023-04-06T00:35:05;4.80;65.70
68215;DHT22;55036;52.138;5.236;2023-04-06T00:37:32;4.80;65.70
68215;DHT22;55036;52.138;5.236;2023-04-06T00:39:59;4.70;65.70
68215;DHT22;55036;52.138;5.236;2023-04-06T00:42:25;4.80;65.70
68215;DHT22;55036;52.138;5.236;2023-04-06T00:44:57;4.80;65.80
68215;DHT22;55036;52.138;5.236;2023-04-06T00:47:24;4.70;65.70
68215;DHT22;55036;52.138;5.236;2023-04-06T00:49:53;4.80;65.90
68215;DHT22;55036;52.138;5.236;2023-04-06T00:52:19;4.70;66.00
68215;DHT22;55036;52.138;5.236;2023-04-06T00:54:46;4.70;66.00
68215;DHT22;55036;52.138;5.236;2023-04-06T00:57:13;4.70;66.10
68215;DHT22;55036;52.138;5.236;2023-04-06T00:59:40;4.70;66.20
68215;DHT22;55036;52.138;5.236;2023-04-06T01:02:08;4.70;66.10
68215;DHT22;55036;52.138;5.236;2023-04-06T01:04:35;4.70;66.20
68215;DHT22;55036;52.138;5.236;2023-04-06T01:07:02;4.70;66.10
68215;DHT22;55036;52.138;5.236;2023-04-06T01:09:29;4.70;66.20
68215;DHT22;55036;52.138;5.236;2023-04-06T01:11:57;4.70;67.20
68215;DHT22;55036;52.138;5.236;2023-04-06T01:14:25;4.70;66.20
68215;DHT22;55036;52.138;5.236;2023-04-06T01:16:52;4.80;66.20
68215;DHT22;55036;52.138;5.236;2023-04-06T01:19:19;4.80;66.30
68215;DHT22;55036;52.138;5.236;2023-04-06T01:21:47;4.80;66.40
68215;DHT22;55036;52.138;5.236;2023-04-06T01:24:15;4.80;66.40
68215;DHT22;55036;52.138;5.236;2023-04-06T01:26:43;4.80;66.30
68215;DHT22;55036;52.138;5.236;2023-04-06T01:29:09;4.80;66.20
68215;DHT22;55036;52.138;5.236;2023-04-06T01:31:36;4.90;66.40
68215;DHT22;55036;52.138;5.236;2023-04-06T01:34:03;4.90;66.40
68215;DHT22;55036;52.138;5.236;2023-04-06T01:36:30;4.90;66.50
68215;DHT22;55036;52.138;5.236;2023-04-06T01:38:57;4.90;66.30
68215;DHT22;55036;52.138;5.236;2023-04-06T01:41:24;4.90;66.30
68215;DHT22;55036;52.138;5.236;2023-04-06T01:43:50;5.00;66.20
68215;DHT22;55036;52.138;5.236;2023-04-06T01:46:20;5.10;65.80
68215;DHT22;55036;52.138;5.236;2023-04-06T01:48:47;5.10;65.80
68215;DHT22;55036;52.138;5.236;2023-04-06T01:51:14;5.20;65.80
68215;DHT22;55036;52.138;5.236;2023-04-06T01:53:41;5.20;65.70
68215;DHT22;55036;52.138;5.236;2023-04-06T01:56:07;5.30;65.20
68215;DHT22;55036;52.138;5.236;2023-04-06T01:58:34;5.40;65.00
68215;DHT22;55036;52.138;5.236;2023-04-06T02:01:01;5.40;64.80
68215;DHT22;55036;52.138;5.236;2023-04-06T02:03:28;5.50;64.80
68215;DHT22;55036;52.138;5.236;2023-04-06T02:05:54;5.50;64.40
68215;DHT22;55036;52.138;5.236;2023-04-06T02:08:21;5.60;64.30
68215;DHT22;55036;52.138;5.236;2023-04-06T02:10:48;5.60;63.80
68215;DHT22;55036;52.138;5.236;2023-04-06T02:13:14;5.70;63.80
68215;DHT22;55036;52.138;5.236;2023-04-06T02:15:41;5.70;62.40
68215;DHT22;55036;52.138;5.236;2023-04-06T02:18:08;5.80;62.80
68215;DHT22;55036;52.138;5.236;2023-04-06T02:20:36;5.80;62.00
68215;DHT22;55036;52.138;5.236;2023-04-06T02:23:02;5.80;62.10
68215;DHT22;55036;52.138;5.236;2023-04-06T02:25:29;5.90;62.10
68215;DHT22;55036;52.138;5.236;2023-04-06T02:27:55;6.00;61.50
68215;DHT22;55036;52.138;5.236;2023-04-06T02:30:22;6.00;61.40
68215;DHT22;55036;52.138;5.236;2023-04-06T02:32:49;6.00;61.10
68215;DHT22;55036;52.138;5.236;2023-04-06T02:35:16;6.10;61.20
68215;DHT22;55036;52.138;5.236;2023-04-06T02:37:42;6.20;61.00
68215;DHT22;55036;52.138;5.236;2023-04-06T02:40:10;6.20;60.40
68215;DHT22;55036;52.138;5.236;2023-04-06T02:42:36;6.20;59.60
68215;DHT22;55036;52.138;5.236;2023-04-06T02:45:03;6.30;59.70
68215;DHT22;55036;52.138;5.236;2023-04-06T02:47:30;6.30;59.80
68215;DHT22;55036;52.138;5.236;2023-04-06T02:49:57;6.30;59.10
68215;DHT22;55036;52.138;5.236;2023-04-06T02:52:23;6.30;58.40
68215;DHT22;55036;52.138;5.236;2023-04-06T02:54:50;6.40;58.80
68215;DHT22;55036;52.138;5.236;2023-04-06T02:57:17;6.40;58.70
68215;DHT22;55036;52.138;5.236;2023-04-06T02:59:44;6.40;58.50
68215;DHT22;55036;52.138;5.236;2023-04-06T03:02:11;6.40;58.40
68215;DHT22;55036;52.138;5.236;2023-04-06T03:04:38;6.40;57.70
68215;DHT22;55036;52.138;5.236;2023-04-06T03:07:04;6.50;58.20
68215;DHT22;55036;52.138;5.236;2023-04-06T03:09:31;6.50;57.90
68215;DHT22;55036;52.138;5.236;2023-04-06T03:11:58;6.40;57.20
68215;DHT22;55036;52.138;5.236;2023-04-06T03:14:25;6.40;57.90
68215;DHT22;55036;52.138;5.236;2023-04-06T03:16:51;6.50;58.00
68215;DHT22;55036;52.138;5.236;2023-04-06T03:19:18;6.50;57.80
68215;DHT22;55036;52.138;5.236;2023-04-06T03:21:44;6.50;57.30
68215;DHT22;55036;52.138;5.236;2023-04-06T03:24:12;6.50;57.30
68215;DHT22;55036;52.138;5.236;2023-04-06T03:26:40;6.50;57.50
68215;DHT22;55036;52.138;5.236;2023-04-06T03:29:06;6.60;57.60
68215;DHT22;55036;52.138;5.236;2023-04-06T03:31:34;6.50;57.10
68215;DHT22;55036;52.138;5.236;2023-04-06T03:34:00;6.60;57.30
68215;DHT22;55036;52.138;5.236;2023-04-06T03:36:27;6.60;57.20
68215;DHT22;55036;52.138;5.236;2023-04-06T03:38:54;6.60;57.10
68215;DHT22;55036;52.138;5.236;2023-04-06T03:41:20;6.70;57.20
68215;DHT22;55036;52.138;5.236;2023-04-06T03:43:47;6.70;56.90
68215;DHT22;55036;52.138;5.236;2023-04-06T03:46:14;6.70;57.00
68215;DHT22;55036;52.138;5.236;2023-04-06T03:48:41;6.70;56.50
68215;DHT22;55036;52.138;5.236;2023-04-06T03:51:08;6.70;56.80
68215;DHT22;55036;52.138;5.236;2023-04-06T03:53:34;6.70;57.00
68215;DHT22;55036;52.138;5.236;2023-04-06T03:56:03;6.70;57.00
68215;DHT22;55036;52.138;5.236;2023-04-06T03:58:30;6.60;56.80
68215;DHT22;55036;52.138;5.236;2023-04-06T04:00:57;6.60;56.80
68215;DHT22;55036;52.138;5.236;2023-04-06T04:03:24;6.60;56.90
68215;DHT22;55036;52.138;5.236;2023-04-06T04:05:54;6.60;56.90
68215;DHT22;55036;52.138;5.236;2023-04-06T04:08:24;6.60;56.80
68215;DHT22;55036;52.138;5.236;2023-04-06T04:10:51;6.60;56.90
68215;DHT22;55036;52.138;5.236;2023-04-06T04:13:18;6.60;56.90
68215;DHT22;55036;52.138;5.236;2023-04-06T04:15:45;6.60;56.80
68215;DHT22;55036;52.138;5.236;2023-04-06T04:18:13;6.50;56.80
68215;DHT22;55036;52.138;5.236;2023-04-06T04:20:40;6.50;57.00
68215;DHT22;55036;52.138;5.236;2023-04-06T04:23:07;6.50;57.00
68215;DHT22;55036;52.138;5.236;2023-04-06T04:25:34;6.50;57.00
68215;DHT22;55036;52.138;5.236;2023-04-06T04:28:00;6.50;57.30
68215;DHT22;55036;52.138;5.236;2023-04-06T04:30:27;6.40;57.20
68215;DHT22;55036;52.138;5.236;2023-04-06T04:32:54;6.50;57.30
68215;DHT22;55036;52.138;5.236;2023-04-06T04:35:20;6.50;57.30
68215;DHT22;55036;52.138;5.236;2023-04-06T04:37:47;6.50;57.20
68215;DHT22;55036;52.138;5.236;2023-04-06T04:40:14;6.60;57.10
68215;DHT22;55036;52.138;5.236;2023-04-06T04:42:40;6.50;57.30
68215;DHT22;55036;52.138;5.236;2023-04-06T04:45:07;6.50;57.30
68215;DHT22;55036;52.138;5.236;2023-04-06T04:47:34;6.50;57.30
68215;DHT22;55036;52.138;5.236;2023-04-06T04:50:01;6.50;57.10
68215;DHT22;55036;52.138;5.236;2023-04-06T04:52:27;6.50;57.30
68215;DHT22;55036;52.138;5.236;2023-04-06T04:54:54;6.50;57.40
68215;DHT22;55036;52.138;5.236;2023-04-06T04:57:21;6.60;57.50
68215;DHT22;55036;52.138;5.236;2023-04-06T04:59:47;6.50;57.70
68215;DHT22;55036;52.138;5.236;2023-04-06T05:02:15;6.50;57.70
68215;DHT22;55036;52.138;5.236;2023-04-06T05:04:42;6.60;57.60
68215;DHT22;55036;52.138;5.236;2023-04-06T05:07:09;6.60;57.30
68215;DHT22;55036;52.138;5.236;2023-04-06T05:09:36;6.70;57.50
68215;DHT22;55036;52.138;5.236;2023-04-06T05:12:03;6.60;57.60
68215;DHT22;55036;52.138;5.236;2023-04-06T05:14:29;6.70;57.60
68215;DHT22;55036;52.138;5.236;2023-04-06T05:16:56;6.70;57.40
68215;DHT22;55036;52.138;5.236;2023-04-06T05:19:23;6.70;57.50
68215;DHT22;55036;52.138;5.236;2023-04-06T05:21:50;6.70;57.60
68215;DHT22;55036;52.138;5.236;2023-04-06T05:24:16;6.80;57.40
68215;DHT22;55036;52.138;5.236;2023-04-06T05:26:43;6.80;57.10
68215;DHT22;55036;52.138;5.236;2023-04-06T05:29:10;6.80;57.30
68215;DHT22;55036;52.138;5.236;2023-04-06T05:31:37;6.90;57.30
68215;DHT22;55036;52.138;5.236;2023-04-06T05:34:04;6.90;57.20
68215;DHT22;55036;52.138;5.236;2023-04-06T05:36:31;7.00;57.10
68215;DHT22;55036;52.138;5.236;2023-04-06T05:38:58;7.00;57.00
68215;DHT22;55036;52.138;5.236;2023-04-06T05:41:25;7.10;56.90
68215;DHT22;55036;52.138;5.236;2023-04-06T05:43:52;7.00;57.20
68215;DHT22;55036;52.138;5.236;2023-04-06T05:46:19;7.10;57.10
68215;DHT22;55036;52.138;5.236;2023-04-06T05:48:46;7.10;57.10
68215;DHT22;55036;52.138;5.236;2023-04-06T05:51:13;7.10;57.30
68215;DHT22;55036;52.138;5.236;2023-04-06T05:53:39;7.20;57.10
68215;DHT22;55036;52.138;5.236;2023-04-06T05:56:07;7.20;56.80
68215;DHT22;55036;52.138;5.236;2023-04-06T05:58:33;7.20;57.00
68215;DHT22;55036;52.138;5.236;2023-04-06T06:01:00;7.30;56.80
68215;DHT22;55036;52.138;5.236;2023-04-06T06:03:27;7.40;56.60
68215;DHT22;55036;52.138;5.236;2023-04-06T06:06:02;7.40;56.50
68215;DHT22;55036;52.138;5.236;2023-04-06T06:08:31;7.50;56.60
68215;DHT22;55036;52.138;5.236;2023-04-06T06:10:57;7.40;56.60
68215;DHT22;55036;52.138;5.236;2023-04-06T06:13:24;7.50;56.30
68215;DHT22;55036;52.138;5.236;2023-04-06T06:15:51;7.40;56.50
68215;DHT22;55036;52.138;5.236;2023-04-06T06:18:18;7.40;56.50
68215;DHT22;55036;52.138;5.236;2023-04-06T06:20:45;7.50;56.50
68215;DHT22;55036;52.138;5.236;2023-04-06T06:23:12;7.50;56.50
68215;DHT22;55036;52.138;5.236;2023-04-06T06:25:39;7.50;56.60
68215;DHT22;55036;52.138;5.236;2023-04-06T06:28:05;7.60;56.70
68215;DHT22;55036;52.138;5.236;2023-04-06T06:30:32;7.70;56.70
68215;DHT22;55036;52.138;5.236;2023-04-06T06:32:59;7.80;56.70
68215;DHT22;55036;52.138;5.236;2023-04-06T06:35:25;7.90;56.60
68215;DHT22;55036;52.138;5.236;2023-04-06T06:37:52;7.90;56.50
68215;DHT22;55036;52.138;5.236;2023-04-06T06:40:19;8.00;56.00
68215;DHT22;55036;52.138;5.236;2023-04-06T06:42:48;8.10;56.20
68215;DHT22;55036;52.138;5.236;2023-04-06T06:45:15;8.10;56.30
68215;DHT22;55036;52.138;5.236;2023-04-06T06:47:42;8.10;56.00
68215;DHT22;55036;52.138;5.236;2023-04-06T06:50:08;8.20;56.00
68215;DHT22;55036;52.138;5.236;2023-04-06T06:52:35;8.20;56.20
68215;DHT22;55036;52.138;5.236;2023-04-06T06:55:02;8.10;56.00
68215;DHT22;55036;52.138;5.236;2023-04-06T06:57:29;8.20;56.40
68215;DHT22;55036;52.138;5.236;2023-04-06T06:59:56;8.20;56.20
68215;DHT22;55036;52.138;5.236;2023-04-06T07:02:22;8.30;56.20
68215;DHT22;55036;52.138;5.236;2023-04-06T07:04:49;8.20;55.90
68215;DHT22;55036;52.138;5.236;2023-04-06T07:07:16;8.20;56.00
68215;DHT22;55036;52.138;5.236;2023-04-06T07:09:43;8.20;56.10
68215;DHT22;55036;52.138;5.236;2023-04-06T07:12:09;8.30;56.10
68215;DHT22;55036;52.138;5.236;2023-04-06T07:14:36;8.40;56.00
68215;DHT22;55036;52.138;5.236;2023-04-06T07:17:03;8.30;56.00
68215;DHT22;55036;52.138;5.236;2023-04-06T07:19:30;8.30;56.00
68215;DHT22;55036;52.138;5.236;2023-04-06T07:21:57;8.30;56.00
68215;DHT22;55036;52.138;5.236;2023-04-06T07:24:23;8.30;56.80
68215;DHT22;55036;52.138;5.236;2023-04-06T07:26:50;8.20;56.50
68215;DHT22;55036;52.138;5.236;2023-04-06T07:29:17;8.40;56.60
68215;DHT22;55036;52.138;5.236;2023-04-06T07:31:44;8.40;56.50
68215;DHT22;55036;52.138;5.236;2023-04-06T07:34:11;8.50;56.40
68215;DHT22;55036;52.138;5.236;2023-04-06T07:36:38;8.50;56.40
68215;DHT22;55036;52.138;5.236;2023-04-06T07:39:05;8.50;56.60
68215;DHT22;55036;52.138;5.236;2023-04-06T07:41:31;8.50;56.70
68215;DHT22;55036;52.138;5.236;2023-04-06T07:43:58;8.60;56.40
68215;DHT22;55036;52.138;5.236;2023-04-06T07:46:25;8.60;57.10
68215;DHT22;55036;52.138;5.236;2023-04-06T07:48:51;8.70;56.70
68215;DHT22;55036;52.138;5.236;2023-04-06T07:51:18;8.80;56.80
68215;DHT22;55036;52.138;5.236;2023-04-06T07:53:45;9.00;56.90
68215;DHT22;55036;52.138;5.236;2023-04-06T07:56:12;9.00;56.90
68215;DHT22;55036;52.138;5.236;2023-04-06T07:58:38;9.10;57.00
68215;DHT22;55036;52.138;5.236;2023-04-06T08:01:05;9.20;56.40
68215;DHT22;55036;52.138;5.236;2023-04-06T08:03:34;9.20;55.50
68215;DHT22;55036;52.138;5.236;2023-04-06T08:09:47;9.30;55.10
68215;DHT22;55036;52.138;5.236;2023-04-06T08:12:14;9.30;56.40
68215;DHT22;55036;52.138;5.236;2023-04-06T08:14:41;9.50;56.40
68215;DHT22;55036;52.138;5.236;2023-04-06T08:17:07;9.60;55.70
68215;DHT22;55036;52.138;5.236;2023-04-06T08:19:34;9.70;56.00
68215;DHT22;55036;52.138;5.236;2023-04-06T08:22:01;9.80;55.60
68215;DHT22;55036;52.138;5.236;2023-04-06T08:24:28;9.90;55.00
68215;DHT22;55036;52.138;5.236;2023-04-06T08:26:55;10.00;55.40
68215;DHT22;55036;52.138;5.236;2023-04-06T08:29:22;10.10;55.20
68215;DHT22;55036;52.138;5.236;2023-04-06T08:31:48;10.10;55.10
68215;DHT22;55036;52.138;5.236;2023-04-06T08:34:15;10.10;54.70
68215;DHT22;55036;52.138;5.236;2023-04-06T08:36:42;10.20;54.80
68215;DHT22;55036;52.138;5.236;2023-04-06T08:39:09;10.30;55.20
68215;DHT22;55036;52.138;5.236;2023-04-06T08:41:36;10.20;55.10
68215;DHT22;55036;52.138;5.236;2023-04-06T08:44:02;10.30;54.80
68215;DHT22;55036;52.138;5.236;2023-04-06T08:46:30;10.50;55.00
68215;DHT22;55036;52.138;5.236;2023-04-06T08:48:58;10.60;55.10
68215;DHT22;55036;52.138;5.236;2023-04-06T08:51:27;10.60;54.20
68215;DHT22;55036;52.138;5.236;2023-04-06T08:53:56;10.60;54.40
68215;DHT22;55036;52.138;5.236;2023-04-06T08:56:24;10.50;54.70
68215;DHT22;55036;52.138;5.236;2023-04-06T08:58:52;10.50;55.00
68215;DHT22;55036;52.138;5.236;2023-04-06T09:01:25;10.50;55.10
68215;DHT22;55036;52.138;5.236;2023-04-06T09:03:58;10.40;55.70
68215;DHT22;55036;52.138;5.236;2023-04-06T09:06:26;10.50;55.80
68215;DHT22;55036;52.138;5.236;2023-04-06T09:08:57;10.50;56.70
68215;DHT22;55036;52.138;5.236;2023-04-06T09:11:24;10.50;56.80
68215;DHT22;55036;52.138;5.236;2023-04-06T09:13:56;10.50;56.80
68215;DHT22;55036;52.138;5.236;2023-04-06T09:16:24;10.60;57.30
68215;DHT22;55036;52.138;5.236;2023-04-06T09:18:52;10.60;56.30
68215;DHT22;55036;52.138;5.236;2023-04-06T09:21:19;10.70;56.50
68215;DHT22;55036;52.138;5.236;2023-04-06T09:24:00;10.60;57.40
68215;DHT22;55036;52.138;5.236;2023-04-06T09:26:27;10.50;58.10
68215;DHT22;55036;52.138;5.236;2023-04-06T09:28:58;10.50;59.40
68215;DHT22;55036;52.138;5.236;2023-04-06T09:31:29;10.40;58.80
68215;DHT22;55036;52.138;5.236;2023-04-06T09:33:57;10.60;58.40
68215;DHT22;55036;52.138;5.236;2023-04-06T09:36:34;10.60;59.50
68215;DHT22;55036;52.138;5.236;2023-04-06T09:39:04;10.50;60.40
68215;DHT22;55036;52.138;5.236;2023-04-06T09:41:33;10.50;61.30
68215;DHT22;55036;52.138;5.236;2023-04-06T09:44:11;10.60;61.50
68215;DHT22;55036;52.138;5.236;2023-04-06T09:46:39;10.60;61.80
68215;DHT22;55036;52.138;5.236;2023-04-06T09:49:27;10.70;61.20
68215;DHT22;55036;52.138;5.236;2023-04-06T09:51:59;10.70;61.30
68215;DHT22;55036;52.138;5.236;2023-04-06T09:54:29;10.70;62.70
68215;DHT22;55036;52.138;5.236;2023-04-06T09:57:13;10.70;62.70
68215;DHT22;55036;52.138;5.236;2023-04-06T10:02:32;11.10;61.60
68215;DHT22;55036;52.138;5.236;2023-04-06T10:05:35;11.10;61.80
68215;DHT22;55036;52.138;5.236;2023-04-06T10:08:07;11.10;61.60
68215;DHT22;55036;52.138;5.236;2023-04-06T10:10:35;11.00;61.70
68215;DHT22;55036;52.138;5.236;2023-04-06T10:13:03;11.00;61.60
68215;DHT22;55036;52.138;5.236;2023-04-06T10:15:31;10.90;62.60
68215;DHT22;55036;52.138;5.236;2023-04-06T10:17:58;10.90;62.60
68215;DHT22;55036;52.138;5.236;2023-04-06T10:23:19;10.90;64.00
68215;DHT22;55036;52.138;5.236;2023-04-06T10:25:53;10.90;64.10
68215;DHT22;55036;52.138;5.236;2023-04-06T10:28:21;10.70;68.70
68215;DHT22;55036;52.138;5.236;2023-04-06T10:30:48;10.60;68.60
68215;DHT22;55036;52.138;5.236;2023-04-06T10:33:18;10.70;67.90
68215;DHT22;55036;52.138;5.236;2023-04-06T10:35:45;10.80;68.60
68215;DHT22;55036;52.138;5.236;2023-04-06T10:38:12;10.80;69.30
68215;DHT22;55036;52.138;5.236;2023-04-06T10:40:42;10.80;68.60
68215;DHT22;55036;52.138;5.236;2023-04-06T10:43:20;10.70;71.50
68215;DHT22;55036;52.138;5.236;2023-04-06T10:45:59;10.60;71.60
68215;DHT22;55036;52.138;5.236;2023-04-06T10:48:41;10.50;72.70
68215;DHT22;55036;52.138;5.236;2023-04-06T10:51:12;10.30;74.80
68215;DHT22;55036;52.138;5.236;2023-04-06T10:53:42;10.20;73.90
68215;DHT22;55036;52.138;5.236;2023-04-06T10:56:12;10.20;75.60
68215;DHT22;55036;52.138;5.236;2023-04-06T10:58:44;10.10;75.90
68215;DHT22;55036;52.138;5.236;2023-04-06T11:01:18;10.10;76.50
68215;DHT22;55036;52.138;5.236;2023-04-06T11:03:45;10.00;77.80
68215;DHT22;55036;52.138;5.236;2023-04-06T11:06:22;10.00;78.80
68215;DHT22;55036;52.138;5.236;2023-04-06T11:08:50;10.10;76.00
68215;DHT22;55036;52.138;5.236;2023-04-06T11:11:22;10.00;78.20
68215;DHT22;55036;52.138;5.236;2023-04-06T11:13:51;10.00;80.00
68215;DHT22;55036;52.138;5.236;2023-04-06T11:16:20;9.90;78.50
68215;DHT22;55036;52.138;5.236;2023-04-06T11:21:41;9.70;81.10
68215;DHT22;55036;52.138;5.236;2023-04-06T11:24:13;9.70;80.20
68215;DHT22;55036;52.138;5.236;2023-04-06T11:27:00;9.90;81.70
68215;DHT22;55036;52.138;5.236;2023-04-06T11:29:29;10.00;79.70
68215;DHT22;55036;52.138;5.236;2023-04-06T11:32:04;10.00;80.70
68215;DHT22;55036;52.138;5.236;2023-04-06T11:34:36;10.00;81.00
68215;DHT22;55036;52.138;5.236;2023-04-06T11:37:06;10.00;80.30
68215;DHT22;55036;52.138;5.236;2023-04-06T11:39:48;10.20;81.40
68215;DHT22;55036;52.138;5.236;2023-04-06T11:42:25;10.10;82.70
68215;DHT22;55036;52.138;5.236;2023-04-06T11:44:59;10.20;81.10
68215;DHT22;55036;52.138;5.236;2023-04-06T11:47:34;10.20;80.70
68215;DHT22;55036;52.138;5.236;2023-04-06T11:50:09;10.30;81.10
68215;DHT22;55036;52.138;5.236;2023-04-06T11:52:39;10.40;81.70
68215;DHT22;55036;52.138;5.236;2023-04-06T11:55:13;10.50;82.00
68215;DHT22;55036;52.138;5.236;2023-04-06T11:57:41;10.50;80.90
68215;DHT22;55036;52.138;5.236;2023-04-06T12:00:09;10.40;80.70
68215;DHT22;55036;52.138;5.236;2023-04-06T12:02:39;10.50;80.60
68215;DHT22;55036;52.138;5.236;2023-04-06T12:05:06;10.40;80.30
68215;DHT22;55036;52.138;5.236;2023-04-06T12:07:34;10.30;83.80
68215;DHT22;55036;52.138;5.236;2023-04-06T12:10:02;10.20;81.20
68215;DHT22;55036;52.138;5.236;2023-04-06T12:12:29;10.30;82.50
68215;DHT22;55036;52.138;5.236;2023-04-06T12:14:56;10.30;82.60
68215;DHT22;55036;52.138;5.236;2023-04-06T12:17:23;10.20;83.40
68215;DHT22;55036;52.138;5.236;2023-04-06T12:19:49;10.20;82.60
68215;DHT22;55036;52.138;5.236;2023-04-06T12:22:17;10.30;83.20
68215;DHT22;55036;52.138;5.236;2023-04-06T12:24:44;10.20;83.40
68215;DHT22;55036;52.138;5.236;2023-04-06T12:27:11;10.10;83.70
68215;DHT22;55036;52.138;5.236;2023-04-06T12:29:38;10.00;83.80
68215;DHT22;55036;52.138;5.236;2023-04-06T12:32:05;10.00;84.30
68215;DHT22;55036;52.138;5.236;2023-04-06T12:34:32;10.10;83.00
68215;DHT22;55036;52.138;5.236;2023-04-06T12:36:59;10.10;85.10
68215;DHT22;55036;52.138;5.236;2023-04-06T12:39:27;9.90;84.60
68215;DHT22;55036;52.138;5.236;2023-04-06T12:41:54;10.00;83.60
68215;DHT22;55036;52.138;5.236;2023-04-06T12:44:22;10.00;83.80
68215;DHT22;55036;52.138;5.236;2023-04-06T12:46:52;10.00;84.20
68215;DHT22;55036;52.138;5.236;2023-04-06T12:49:19;10.00;85.30
68215;DHT22;55036;52.138;5.236;2023-04-06T12:51:46;9.90;85.90
68215;DHT22;55036;52.138;5.236;2023-04-06T12:54:12;9.80;87.30
68215;DHT22;55036;52.138;5.236;2023-04-06T12:56:39;9.70;86.70
68215;DHT22;55036;52.138;5.236;2023-04-06T12:59:06;9.80;85.50
68215;DHT22;55036;52.138;5.236;2023-04-06T13:01:33;9.90;84.50
68215;DHT22;55036;52.138;5.236;2023-04-06T13:03:59;9.90;85.30
68215;DHT22;55036;52.138;5.236;2023-04-06T13:06:26;9.90;86.50
68215;DHT22;55036;52.138;5.236;2023-04-06T13:08:54;9.90;85.20
68215;DHT22;55036;52.138;5.236;2023-04-06T13:11:21;9.90;85.60
68215;DHT22;55036;52.138;5.236;2023-04-06T13:13:52;9.90;85.50
68215;DHT22;55036;52.138;5.236;2023-04-06T13:16:19;9.90;88.30
68215;DHT22;55036;52.138;5.236;2023-04-06T13:18:46;9.80;86.70
68215;DHT22;55036;52.138;5.236;2023-04-06T13:21:16;9.80;86.80
68215;DHT22;55036;52.138;5.236;2023-04-06T13:23:43;9.90;85.70
68215;DHT22;55036;52.138;5.236;2023-04-06T13:26:10;9.90;85.70
68215;DHT22;55036;52.138;5.236;2023-04-06T13:28:37;9.80;87.10
68215;DHT22;55036;52.138;5.236;2023-04-06T13:31:05;9.80;86.70
68215;DHT22;55036;52.138;5.236;2023-04-06T13:33:33;9.80;87.10
68215;DHT22;55036;52.138;5.236;2023-04-06T13:36:00;9.80;87.30
68215;DHT22;55036;52.138;5.236;2023-04-06T13:38:27;9.80;86.80
68215;DHT22;55036;52.138;5.236;2023-04-06T13:40:54;9.70;88.50
68215;DHT22;55036;52.138;5.236;2023-04-06T13:43:21;9.60;89.70
68215;DHT22;55036;52.138;5.236;2023-04-06T13:45:55;9.50;90.30
68215;DHT22;55036;52.138;5.236;2023-04-06T13:48:22;9.60;89.10
68215;DHT22;55036;52.138;5.236;2023-04-06T13:50:49;9.60;89.90
68215;DHT22;55036;52.138;5.236;2023-04-06T13:53:16;9.70;90.30
68215;DHT22;55036;52.138;5.236;2023-04-06T13:55:43;9.60;89.10
68215;DHT22;55036;52.138;5.236;2023-04-06T13:58:10;9.70;89.90
68215;DHT22;55036;52.138;5.236;2023-04-06T14:00:37;9.70;89.80
68215;DHT22;55036;52.138;5.236;2023-04-06T14:03:05;9.80;90.00
68215;DHT22;55036;52.138;5.236;2023-04-06T14:05:33;9.80;89.20
68215;DHT22;55036;52.138;5.236;2023-04-06T14:07:59;9.80;90.30
68215;DHT22;55036;52.138;5.236;2023-04-06T14:10:26;9.80;90.20
68215;DHT22;55036;52.138;5.236;2023-04-06T14:12:54;9.70;90.20
68215;DHT22;55036;52.138;5.236;2023-04-06T14:15:21;9.80;89.50
68215;DHT22;55036;52.138;5.236;2023-04-06T14:17:48;9.80;89.50
68215;DHT22;55036;52.138;5.236;2023-04-06T14:20:15;9.90;88.50
68215;DHT22;55036;52.138;5.236;2023-04-06T14:22:42;9.80;89.40
68215;DHT22;55036;52.138;5.236;2023-04-06T14:25:10;9.70;89.10
68215;DHT22;55036;52.138;5.236;2023-04-06T14:27:40;9.70;89.10
68215;DHT22;55036;52.138;5.236;2023-04-06T14:30:07;9.60;89.90
68215;DHT22;55036;52.138;5.236;2023-04-06T14:32:34;9.60;89.60
68215;DHT22;55036;52.138;5.236;2023-04-06T14:35:04;9.60;90.60
68215;DHT22;55036;52.138;5.236;2023-04-06T14:37:33;9.50;89.70
68215;DHT22;55036;52.138;5.236;2023-04-06T14:40:00;9.50;90.20
68215;DHT22;55036;52.138;5.236;2023-04-06T14:42:26;9.50;90.00
68215;DHT22;55036;52.138;5.236;2023-04-06T14:44:53;9.60;89.90
68215;DHT22;55036;52.138;5.236;2023-04-06T14:47:20;9.60;90.80
68215;DHT22;55036;52.138;5.236;2023-04-06T14:49:51;9.50;90.80
68215;DHT22;55036;52.138;5.236;2023-04-06T14:52:18;9.50;90.80
68215;DHT22;55036;52.138;5.236;2023-04-06T14:54:44;9.50;90.80
68215;DHT22;55036;52.138;5.236;2023-04-06T14:57:11;9.50;91.00
68215;DHT22;55036;52.138;5.236;2023-04-06T14:59:38;9.60;90.70
68215;DHT22;55036;52.138;5.236;2023-04-06T15:02:06;9.60;90.50
68215;DHT22;55036;52.138;5.236;2023-04-06T15:04:38;9.70;90.60
68215;DHT22;55036;52.138;5.236;2023-04-06T15:07:06;9.70;90.50
68215;DHT22;55036;52.138;5.236;2023-04-06T15:09:32;9.60;91.20
68215;DHT22;55036;52.138;5.236;2023-04-06T15:11:59;9.60;91.70
68215;DHT22;55036;52.138;5.236;2023-04-06T15:14:27;9.60;91.60
68215;DHT22;55036;52.138;5.236;2023-04-06T15:16:53;9.60;91.90
68215;DHT22;55036;52.138;5.236;2023-04-06T15:19:21;9.50;91.80
68215;DHT22;55036;52.138;5.236;2023-04-06T15:21:47;9.60;91.50
68215;DHT22;55036;52.138;5.236;2023-04-06T15:24:14;9.60;91.50
68215;DHT22;55036;52.138;5.236;2023-04-06T15:26:41;9.60;91.20
68215;DHT22;55036;52.138;5.236;2023-04-06T15:29:07;9.60;91.50
68215;DHT22;55036;52.138;5.236;2023-04-06T15:31:34;9.60;91.00
68215;DHT22;55036;52.138;5.236;2023-04-06T15:34:05;9.60;90.90
68215;DHT22;55036;52.138;5.236;2023-04-06T15:36:34;9.60;91.20
68215;DHT22;55036;52.138;5.236;2023-04-06T15:39:01;9.60;91.10
68215;DHT22;55036;52.138;5.236;2023-04-06T15:41:28;9.60;91.40
68215;DHT22;55036;52.138;5.236;2023-04-06T15:43:55;9.50;92.00
68215;DHT22;55036;52.138;5.236;2023-04-06T15:46:22;9.50;91.80
68215;DHT22;55036;52.138;5.236;2023-04-06T15:48:49;9.50;91.50
68215;DHT22;55036;52.138;5.236;2023-04-06T15:51:15;9.60;91.50
68215;DHT22;55036;52.138;5.236;2023-04-06T15:53:43;9.50;91.50
68215;DHT22;55036;52.138;5.236;2023-04-06T15:56:11;9.40;92.10
68215;DHT22;55036;52.138;5.236;2023-04-06T15:58:40;9.40;92.50